Terminal Aerodrome Forecast
Issued by NWS Kansas City/Pleasant Hill, MO

Home | Current Version | Previous Version | Text Only | Print | Product List | Glossary On
Versions: 1 2 3 4 5 6 7 8 9 10 11 12 13 14
000
FTUS43 KEAX 271500 AAA
TAFMCI
TAF AMD
KMCI 271514Z 2715/2812 01007KT P6SM BKN035
      TEMPO 2715/2716 BKN028
     FM272100 04004KT P6SM BKN150
     FM280600 14010KT P6SM -RA OVC020=

USA.gov is the U.S. government's official web portal to all federal, state and local government web resources and services.